Observation data for Plainview on 08/14/2019      Previous  Date  Next       Current Mesonet Observations  Soil Data  Daily Summary Page  Observations in Plain Language
KPVS 140500Z 10005KT 24/18 A3014 RMK A01 T02390183  RH  073%=      5-min Rain = 0
KPVS 140505Z 10005KT 24/18 A3014 RMK A01 T02390184  RH  073%=      5-min Rain = 0
KPVS 140510Z 07004KT 24/18 A3014 RMK A01 T02360183  RH  074%=      5-min Rain = 0
KPVS 140515Z 08004KT 24/18 A3014 RMK A01 T02350183  RH  074%=      5-min Rain = 0
KPVS 140520Z 06005KT 23/18 A3015 RMK A01 T02340184  RH  075%=      5-min Rain = 0
KPVS 140525Z 06005KT 24/19 A3015 RMK A01 T02370185  RH  074%=      5-min Rain = 0
KPVS 140530Z 06006KT 24/18 A3014 RMK A01 T02390184  RH  073%=      5-min Rain = 0
KPVS 140535Z 06007KT 24/18 A3014 RMK A01 T02380184  RH  074%=      5-min Rain = 0
KPVS 140540Z 06006KT 24/18 A3015 RMK A01 T02360184  RH  074%=      5-min Rain = 0
KPVS 140545Z 07006KT 24/18 A3015 RMK A01 T02350184  RH  075%=      5-min Rain = 0
KPVS 140550Z 08006KT 23/18 A3014 RMK A01 T02330183  RH  076%=      5-min Rain = 0
KPVS 140555Z 08007KT 23/18 A3014 RMK A01 T02310184  RH  077%=      5-min Rain = 0
KPVS 140600Z 07008KT 23/18 A3015 RMK A01 T02300184  RH  077%=      5-min Rain = 0
KPVS 140605Z 06008KT 23/19 A3015 RMK A01 T02330186  RH  077%=      5-min Rain = 0
KPVS 140610Z 06010KT 24/19 A3015 RMK A01 T02350188  RH  077%=      5-min Rain = 0
KPVS 140615Z 06009KT 24/19 A3016 RMK A01 T02350189  RH  077%=      5-min Rain = 0
KPVS 140620Z 06009KT 24/19 A3016 RMK A01 T02350190  RH  078%=      5-min Rain = 0
KPVS 140625Z 06010KT 24/19 A3017 RMK A01 T02350190  RH  078%=      5-min Rain = 0
KPVS 140630Z 05010KT 23/19 A3017 RMK A01 T02340189  RH  078%=      5-min Rain = 0
KPVS 140635Z 05009G14KT 23/19 A3017 RMK A01 T02340188  RH  078%=      5-min Rain = 0
KPVS 140640Z 06009KT 23/19 A3017 RMK A01 T02340188  RH  078%=      5-min Rain = 0
KPVS 140645Z 06010KT 23/19 A3017 RMK A01 T02340188  RH  077%=      5-min Rain = 0
KPVS 140650Z 06009G14KT 24/19 A3017 RMK A01 T02350187  RH  077%=      5-min Rain = 0
KPVS 140655Z 06008G14KT 24/19 A3017 RMK A01 T02350187  RH  077%=      5-min Rain = 0
KPVS 140700Z 07008KT 24/19 A3017 RMK A01 T02350187  RH  077%=      5-min Rain = 0
KPVS 140705Z 06008KT 24/19 A3016 RMK A01 T02350187  RH  077%=      5-min Rain = 0
KPVS 140710Z 06009KT 24/19 A3017 RMK A01 T02350187  RH  077%=      5-min Rain = 0
KPVS 140715Z 06008KT 23/19 A3017 RMK A01 T02340187  RH  077%=      5-min Rain = 0
KPVS 140720Z 06008KT 23/19 A3016 RMK A01 T02330187  RH  077%=      5-min Rain = 0
KPVS 140725Z 06007KT 23/19 A3016 RMK A01 T02320187  RH  078%=      5-min Rain = 0
KPVS 140730Z 06007G12KT 23/19 A3016 RMK A01 T02320187  RH  077%=      5-min Rain = 0
KPVS 140735Z 07006KT 23/19 A3016 RMK A01 T02310186  RH  078%=      5-min Rain = 0
KPVS 140740Z 08006KT 23/19 A3016 RMK A01 T02290186  RH  079%=      5-min Rain = 0
KPVS 140745Z 08006KT 23/19 A3016 RMK A01 T02270186  RH  079%=      5-min Rain = 0
KPVS 140750Z 08007KT 23/19 A3015 RMK A01 T02270185  RH  079%=      5-min Rain = 0
KPVS 140755Z 08007KT 23/19 A3015 RMK A01 T02280185  RH  079%=      5-min Rain = 0
KPVS 140800Z 07007KT 23/19 A3015 RMK A01 T02280185  RH  079%=      5-min Rain = 0
KPVS 140805Z 07007KT 23/19 A3015 RMK A01 T02280185  RH  079%=      5-min Rain = 0
KPVS 140810Z 08007KT 23/19 A3015 RMK A01 T02270185  RH  079%=      5-min Rain = 0
KPVS 140815Z 07006KT 23/19 A3015 RMK A01 T02250185  RH  080%=      5-min Rain = 0
KPVS 140820Z 06006KT 23/19 A3015 RMK A01 T02250185  RH  080%=      5-min Rain = 0
KPVS 140825Z 06006KT 23/19 A3015 RMK A01 T02260185  RH  080%=      5-min Rain = 0
KPVS 140830Z 06006KT 23/19 A3015 RMK A01 T02250185  RH  080%=      5-min Rain = 0
KPVS 140835Z 08005KT 22/19 A3015 RMK A01 T02230185  RH  081%=      5-min Rain = 0
KPVS 140840Z 07005KT 22/19 A3015 RMK A01 T02210185  RH  082%=      5-min Rain = 0
KPVS 140845Z 06005KT 22/19 A3015 RMK A01 T02200185  RH  083%=      5-min Rain = 0
KPVS 140850Z 05007KT 22/19 A3015 RMK A01 T02200185  RH  083%=      5-min Rain = 0
KPVS 140855Z 04008KT 22/19 A3016 RMK A01 T02200185  RH  083%=      5-min Rain = 0
KPVS 140900Z 04008KT 22/19 A3016 RMK A01 T02200185  RH  082%=      5-min Rain = 0
KPVS 140905Z 05007KT 22/18 A3016 RMK A01 T02200184  RH  082%=      5-min Rain = 0
KPVS 140910Z 05007KT 22/18 A3016 RMK A01 T02190184  RH  082%=      5-min Rain = 0
KPVS 140915Z 06008G13KT 22/18 A3016 RMK A01 T02190183  RH  082%=      5-min Rain = 0
KPVS 140920Z 05009KT 22/18 A3016 RMK A01 T02180182  RH  082%=      5-min Rain = 0
KPVS 140925Z 06011KT 22/18 A3016 RMK A01 T02170179  RH  081%=      5-min Rain = 0
KPVS 140930Z 05008KT 22/18 A3017 RMK A01 T02160176  RH  080%=      5-min Rain = 0
KPVS 140935Z 04008KT 21/17 A3017 RMK A01 T02130173  RH  079%=      5-min Rain = 0
KPVS 140940Z 04009KT 21/17 A3018 RMK A01 T02110167  RH  078%=      5-min Rain = 0
KPVS 140945Z 04010KT 21/16 A3019 RMK A01 T02100161  RH  076%=      5-min Rain = 0
KPVS 140950Z 04007KT 21/16 A3019 RMK A01 T02080159  RH  075%=      5-min Rain = 0
KPVS 140955Z 04008G13KT 21/16 A3019 RMK A01 T02070157  RH  075%=      5-min Rain = 0
KPVS 141000Z 05008G13KT 21/16 A3019 RMK A01 T02050155  RH  075%=      5-min Rain = 0
KPVS 141005Z 05007KT 20/15 A3019 RMK A01 T02040154  RH  075%=      5-min Rain = 0
KPVS 141010Z 05006KT 20/15 A302 RMK A01 T02030154  RH  075%=      5-min Rain = 0
KPVS 141015Z 04008KT 20/15 A302 RMK A01 T02010153  RH  075%=      5-min Rain = 0
KPVS 141020Z 03008KT 20/15 A3021 RMK A01 T02010152  RH  075%=      5-min Rain = 0
KPVS 141025Z 04008KT 20/15 A3021 RMK A01 T02000151  RH  075%=      5-min Rain = 0
KPVS 141030Z 04009G14KT 20/15 A3021 RMK A01 T01980150  RH  075%=      5-min Rain = 0
KPVS 141035Z 04009KT 20/15 A3021 RMK A01 T01980147  RH  074%=      5-min Rain = 0
KPVS 141040Z 04008KT 20/15 A3021 RMK A01 T01970146  RH  074%=      5-min Rain = 0
KPVS 141045Z 04007G12KT 20/14 A3021 RMK A01 T01950144  RH  074%=      5-min Rain = 0
KPVS 141050Z 04007KT 19/14 A3021 RMK A01 T01940144  RH  074%=      5-min Rain = 0
KPVS 141055Z 04008KT 19/14 A3021 RMK A01 T01930143  RH  074%=      5-min Rain = 0
KPVS 141100Z 04008KT 19/14 A3021 RMK A01 T01930143  RH  074%=      5-min Rain = 0
KPVS 141105Z 04006KT 19/14 A3021 RMK A01 T01910143  RH  075%=      5-min Rain = 0
KPVS 141110Z 03008KT 19/14 A3021 RMK A01 T01900142  RH  075%=      5-min Rain = 0
KPVS 141115Z 03008KT 19/14 A3021 RMK A01 T01900142  RH  075%=      5-min Rain = 0
KPVS 141120Z 04008KT 19/14 A3021 RMK A01 T01900141  RH  075%=      5-min Rain = 0
KPVS 141125Z 04009KT 19/14 A3021 RMK A01 T01890141  RH  075%=      5-min Rain = 0
KPVS 141130Z 03008G13KT 19/14 A3021 RMK A01 T01890140  RH  075%=      5-min Rain = 0
KPVS 141135Z 03008KT 19/14 A3022 RMK A01 T01880140  RH  075%=      5-min Rain = 0
KPVS 141140Z 04008KT 19/14 A3021 RMK A01 T01880140  RH  075%=      5-min Rain = 0
KPVS 141145Z 03009KT 19/14 A3022 RMK A01 T01880140  RH  076%=      5-min Rain = 0
KPVS 141150Z 03009KT 19/14 A3023 RMK A01 T01870140  RH  076%=      5-min Rain = 0
KPVS 141155Z 04008KT 19/14 A3023 RMK A01 T01870140  RH  076%=      5-min Rain = 0
KPVS 141200Z 05007KT 19/14 A3023 RMK A01 T01860140  RH  076%=      5-min Rain = 0
KPVS 141205Z 04006KT 19/14 A3023 RMK A01 T01860141  RH  077%=      5-min Rain = 0
KPVS 141210Z 04006KT 19/14 A3024 RMK A01 T01850141  RH  077%=      5-min Rain = 0
KPVS 141215Z 03006KT 19/14 A3024 RMK A01 T01860142  RH  077%=      5-min Rain = 0
KPVS 141220Z 02006KT 19/14 A3024 RMK A01 T01860142  RH  077%=      5-min Rain = 0
KPVS 141225Z 02007KT 19/14 A3024 RMK A01 T01870142  RH  077%=      5-min Rain = 0
KPVS 141230Z 03006KT 19/14 A3024 RMK A01 T01870142  RH  077%=      5-min Rain = 0
KPVS 141235Z 36010KT 19/14 A3025 RMK A01 T01880142  RH  076%=      5-min Rain = 0
KPVS 141240Z 01008KT 19/14 A3025 RMK A01 T01890141  RH  076%=      5-min Rain = 0
KPVS 141245Z 02006KT 19/14 A3025 RMK A01 T01890142  RH  076%=      5-min Rain = 0
KPVS 141250Z 03005KT 19/14 A3025 RMK A01 T01910143  RH  075%=      5-min Rain = 0
KPVS 141255Z 03005KT 19/14 A3025 RMK A01 T01940144  RH  074%=      5-min Rain = 0
KPVS 141300Z 03005KT 20/15 A3025 RMK A01 T01960145  RH  074%=      5-min Rain = 0
KPVS 141305Z 02006KT 20/15 A3025 RMK A01 T01980145  RH  073%=      5-min Rain = 0
KPVS 141310Z 01008KT 20/15 A3026 RMK A01 T01990146  RH  073%=      5-min Rain = 0
KPVS 141315Z 36008KT 20/15 A3026 RMK A01 T02020147  RH  072%=      5-min Rain = 0
KPVS 141320Z 01007KT 20/15 A3026 RMK A01 T02030147  RH  072%=      5-min Rain = 0
KPVS 141325Z 01005KT 20/15 A3026 RMK A01 T02030148  RH  072%=      5-min Rain = 0
KPVS 141330Z 02006KT 20/15 A3026 RMK A01 T02040149  RH  072%=      5-min Rain = 0
KPVS 141335Z 02005KT 21/15 A3026 RMK A01 T02060150  RH  072%=      5-min Rain = 0
KPVS 141340Z 35007KT 21/15 A3027 RMK A01 T02080152  RH  072%=      5-min Rain = 0
KPVS 141345Z 35009KT 21/15 A3027 RMK A01 T02100153  RH  072%=      5-min Rain = 0
KPVS 141350Z 35008KT 21/15 A3027 RMK A01 T02140154  RH  070%=      5-min Rain = 0
KPVS 141355Z 33008G13KT 21/15 A3028 RMK A01 T02120150  RH  069%=      5-min Rain = 0
KPVS 141400Z 33009KT 21/15 A3028 RMK A01 T02110147  RH  068%=      5-min Rain = 0
KPVS 141405Z 33008G13KT 21/15 A3028 RMK A01 T02110145  RH  068%=      5-min Rain = 0
KPVS 141410Z 33009KT 21/15 A3028 RMK A01 T02140146  RH  067%=      5-min Rain = 0
KPVS 141415Z 34008KT 22/15 A3028 RMK A01 T02200148  RH  065%=      5-min Rain = 0
KPVS 141420Z 34007KT 22/15 A3028 RMK A01 T02210149  RH  065%=      5-min Rain = 0
KPVS 141425Z 35007KT 22/15 A3028 RMK A01 T02200149  RH  065%=      5-min Rain = 0
KPVS 141430Z 35006KT 22/15 A3027 RMK A01 T02200150  RH  066%=      5-min Rain = 0
KPVS 141435Z 36005KT 22/15 A3027 RMK A01 T02200150  RH  066%=      5-min Rain = 0
KPVS 141440Z 36004KT 22/15 A3027 RMK A01 T02220152  RH  066%=      5-min Rain = 0
KPVS 141445Z 02003KT 23/15 A3027 RMK A01 T02250153  RH  065%=      5-min Rain = 0
KPVS 141450Z 01003KT 23/15 A3027 RMK A01 T02280154  RH  064%=      5-min Rain = 0
KPVS 141455Z 03003KT 23/16 A3026 RMK A01 T02310157  RH  065%=      5-min Rain = 0
KPVS 141500Z 05002KT 24/16 A3026 RMK A01 T02370159  RH  063%=      5-min Rain = 0
KPVS 141505Z 03001KT 24/16 A3026 RMK A01 T02430159  RH  061%=      5-min Rain = 0
KPVS 141510Z 17003KT 24/16 A3026 RMK A01 T02440159  RH  060%=      5-min Rain = 0
KPVS 141515Z 13003KT 24/16 A3025 RMK A01 T02430159  RH  061%=      5-min Rain = 0
KPVS 141520Z 14001KT 24/16 A3024 RMK A01 T02410160  RH  062%=      5-min Rain = 0
KPVS 141525Z 17002KT 24/16 A3024 RMK A01 T02430162  RH  062%=      5-min Rain = 0
KPVS 141530Z 24001KT 24/16 A3025 RMK A01 T02440162  RH  062%=      5-min Rain = 0
KPVS 141535Z 12002KT 24/16 A3024 RMK A01 T02430162  RH  062%=      5-min Rain = 0
KPVS 141540Z 09002KT 24/16 A3024 RMK A01 T02440162  RH  062%=      5-min Rain = 0
KPVS 141545Z 10003KT 24/16 A3024 RMK A01 T02430164  RH  063%=      5-min Rain = 0
KPVS 141550Z 14004KT 24/17 A3024 RMK A01 T02440166  RH  063%=      5-min Rain = 0
KPVS 141555Z 13005KT 25/17 A3024 RMK A01 T02460167  RH  063%=      5-min Rain = 0
KPVS 141600Z 11003KT 25/17 A3024 RMK A01 T02470168  RH  063%=      5-min Rain = 0
KPVS 141605Z 12005KT 25/17 A3023 RMK A01 T02510169  RH  062%=      5-min Rain = 0
KPVS 141610Z 12006KT 25/17 A3022 RMK A01 T02500169  RH  062%=      5-min Rain = 0
KPVS 141615Z 13007KT 26/17 A3022 RMK A01 T02550170  RH  061%=      5-min Rain = 0
KPVS 141620Z 12007KT 26/17 A3022 RMK A01 T02590171  RH  060%=      5-min Rain = 0
KPVS 141625Z 12006KT 26/17 A3022 RMK A01 T02630172  RH  059%=      5-min Rain = 0
KPVS 141630Z 11007KT 26/17 A3022 RMK A01 T02640172  RH  058%=      5-min Rain = 0
KPVS 141635Z 11006G11KT 27/17 A3021 RMK A01 T02670173  RH  058%=      5-min Rain = 0
KPVS 141640Z 11005KT 27/17 A3022 RMK A01 T02680172  RH  057%=      5-min Rain = 0
KPVS 141645Z 04005KT 27/17 A3022 RMK A01 T02700172  RH  056%=      5-min Rain = 0
KPVS 141650Z 08007KT 28/17 A3022 RMK A01 T02750171  RH  054%=      5-min Rain = 0
KPVS 141655Z 06007KT 28/17 A3022 RMK A01 T02760172  RH  054%=      5-min Rain = 0
KPVS 141700Z 07007G12KT 28/17 A3022 RMK A01 T02770172  RH  054%=      5-min Rain = 0
KPVS 141705Z 05007G13KT 28/17 A3021 RMK A01 T02840168  RH  051%=      5-min Rain = 0
KPVS 141710Z 07010KT 28/16 A3021 RMK A01 T02820163  RH  050%=      5-min Rain = 0
KPVS 141715Z 07008KT 27/16 A3021 RMK A01 T02720160  RH  052%=      5-min Rain = 0
KPVS 141720Z 06008KT 27/16 A3021 RMK A01 T02740162  RH  052%=      5-min Rain = 0
KPVS 141725Z 05010KT 28/16 A3021 RMK A01 T02770162  RH  051%=      5-min Rain = 0
KPVS 141730Z 04011KT 28/15 A3021 RMK A01 T02780152  RH  047%=      5-min Rain = 0
KPVS 141735Z 05009G14KT 28/15 A3021 RMK A01 T02810154  RH  047%=      5-min Rain = 0
KPVS 141740Z 03011G17KT 28/15 A3021 RMK A01 T02840151  RH  045%=      5-min Rain = 0
KPVS 141745Z 03010KT 29/15 A3022 RMK A01 T02870150  RH  044%=      5-min Rain = 0
KPVS 141750Z 05011KT 29/15 A3022 RMK A01 T02890150  RH  044%=      5-min Rain = 0
KPVS 141755Z 04009KT 29/15 A3022 RMK A01 T02910152  RH  044%=      5-min Rain = 0
KPVS 141800Z 04008G13KT 29/15 A3021 RMK A01 T02940150  RH  043%=      5-min Rain = 0
KPVS 141805Z 04010G15KT 29/15 A3022 RMK A01 T02920150  RH  043%=      5-min Rain = 0
KPVS 141810Z 06006KT 29/15 A3021 RMK A01 T02940152  RH  043%=      5-min Rain = 0
KPVS 141815Z 06008KT 30/15 A3021 RMK A01 T02960151  RH  042%=      5-min Rain = 0
KPVS 141820Z 04005KT 29/15 A3021 RMK A01 T02940148  RH  042%=      5-min Rain = 0
KPVS 141825Z 04004G10KT 30/15 A3021 RMK A01 T02970150  RH  042%=      5-min Rain = 0
KPVS 141830Z 02008G13KT 30/14 A3021 RMK A01 T03040139  RH  037%=      5-min Rain = 0
KPVS 141835Z 03008G15KT 30/13 A3021 RMK A01 T03030133  RH  036%=      5-min Rain = 0
KPVS 141840Z 04007KT 30/13 A3021 RMK A01 T03020129  RH  035%=      5-min Rain = 0
KPVS 141845Z 03008KT 30/14 A3021 RMK A01 T03020135  RH  037%=      5-min Rain = 0
KPVS 141850Z 03009G14KT 31/13 A3021 RMK A01 T03070131  RH  035%=      5-min Rain = 0
KPVS 141855Z 05006KT 31/13 A3021 RMK A01 T03070134  RH  035%=      5-min Rain = 0
KPVS 141900Z 05006KT 31/14 A3021 RMK A01 T03050136  RH  036%=      5-min Rain = 0
KPVS 141905Z 07008KT 31/14 A302 RMK A01 T03050137  RH  037%=      5-min Rain = 0
KPVS 141910Z 08008KT 30/14 A302 RMK A01 T03030136  RH  037%=      5-min Rain = 0
KPVS 141915Z 10008KT 31/13 A302 RMK A01 T03050130  RH  035%=      5-min Rain = 0
KPVS 141920Z 12006G11KT 31/13 A3019 RMK A01 T03060133  RH  036%=      5-min Rain = 0
KPVS 141925Z 03005KT 31/14 A302 RMK A01 T03090139  RH  036%=      5-min Rain = 0
KPVS 141930Z 05007KT 31/14 A3019 RMK A01 T03120140  RH  036%=      5-min Rain = 0
KPVS 141935Z 05007KT 31/14 A3019 RMK A01 T03120135  RH  035%=      5-min Rain = 0
KPVS 141940Z 10006KT 31/13 A3018 RMK A01 T03130134  RH  034%=      5-min Rain = 0
KPVS 141945Z 06005G10KT 31/14 A3018 RMK A01 T03140135  RH  034%=      5-min Rain = 0
KPVS 141950Z 02005KT 32/14 A3018 RMK A01 T03150137  RH  034%=      5-min Rain = 0
KPVS 141955Z 08005G11KT 31/14 A3017 RMK A01 T03130136  RH  035%=      5-min Rain = 0
KPVS 142000Z 07002KT 31/14 A3016 RMK A01 T03100135  RH  035%=      5-min Rain = 0
KPVS 142005Z 10006KT 32/14 A3016 RMK A01 T03150138  RH  035%=      5-min Rain = 0
KPVS 142010Z 15005KT 32/14 A3015 RMK A01 T03160136  RH  034%=      5-min Rain = 0
KPVS 142015Z 18004KT 32/13 A3015 RMK A01 T03160134  RH  034%=      5-min Rain = 0
KPVS 142020Z 13004KT 32/13 A3015 RMK A01 T03170134  RH  034%=      5-min Rain = 0
KPVS 142025Z 20002KT 32/14 A3015 RMK A01 T03220137  RH  033%=      5-min Rain = 0
KPVS 142030Z 09007KT 32/14 A3015 RMK A01 T03240135  RH  032%=      5-min Rain = 0
KPVS 142035Z 14005KT 32/13 A3014 RMK A01 T03230130  RH  032%=      5-min Rain = 0
KPVS 142040Z 10004G9KT 33/13 A3014 RMK A01 T03260127  RH  030%=      5-min Rain = 0
KPVS 142045Z 07004KT 33/12 A3014 RMK A01 T03250123  RH  030%=      5-min Rain = 0
KPVS 142050Z 10003KT 33/12 A3014 RMK A01 T03250123  RH  030%=      5-min Rain = 0
KPVS 142055Z 06003KT 33/12 A3013 RMK A01 T03250121  RH  029%=      5-min Rain = 0
KPVS 142100Z 12004KT 32/12 A3013 RMK A01 T03240123  RH  030%=      5-min Rain = 0
KPVS 142105Z 10005KT 33/12 A3013 RMK A01 T03270123  RH  029%=      5-min Rain = 0
KPVS 142110Z 08004KT 33/12 A3013 RMK A01 T03270122  RH  029%=      5-min Rain = 0
KPVS 142115Z 06004KT 33/12 A3013 RMK A01 T03280122  RH  029%=      5-min Rain = 0
KPVS 142120Z 07005G12KT 33/12 A3013 RMK A01 T03320124  RH  029%=      5-min Rain = 0
KPVS 142125Z 07006KT 33/13 A3012 RMK A01 T03330125  RH  029%=      5-min Rain = 0
KPVS 142130Z 07007KT 33/12 A3012 RMK A01 T03330123  RH  029%=      5-min Rain = 0
KPVS 142135Z 05006KT 33/12 A3012 RMK A01 T03310122  RH  028%=      5-min Rain = 0
KPVS 142140Z 06003KT 33/12 A3012 RMK A01 T03330121  RH  028%=      5-min Rain = 0
KPVS 142145Z 05005KT 34/12 A3012 RMK A01 T03400121  RH  027%=      5-min Rain = 0
KPVS 142150Z 08005KT 34/12 A3011 RMK A01 T03360121  RH  028%=      5-min Rain = 0
KPVS 142155Z 08006KT 34/12 A3011 RMK A01 T03350121  RH  028%=      5-min Rain = 0
KPVS 142200Z 08005KT 33/12 A3011 RMK A01 T03320121  RH  028%=      5-min Rain = 0
KPVS 142205Z 05005G10KT 33/12 A3011 RMK A01 T03310121  RH  028%=      5-min Rain = 0
KPVS 142210Z 05004G10KT 33/12 A3011 RMK A01 T03310121  RH  029%=      5-min Rain = 0
KPVS 142215Z 06009KT 33/12 A3011 RMK A01 T03310121  RH  028%=      5-min Rain = 0
KPVS 142220Z 08007KT 33/12 A3011 RMK A01 T03340119  RH  028%=      5-min Rain = 0
KPVS 142225Z 09004KT 34/12 A3011 RMK A01 T03350119  RH  027%=      5-min Rain = 0
KPVS 142230Z 09007KT 34/12 A3011 RMK A01 T03360118  RH  027%=      5-min Rain = 0
KPVS 142235Z 10006KT 33/12 A301 RMK A01 T03320117  RH  028%=      5-min Rain = 0
KPVS 142240Z 11005KT 33/12 A301 RMK A01 T03320116  RH  027%=      5-min Rain = 0
KPVS 142245Z 09008KT 33/12 A301 RMK A01 T03320117  RH  027%=      5-min Rain = 0
KPVS 142250Z 06007KT 33/12 A301 RMK A01 T03310115  RH  027%=      5-min Rain = 0
KPVS 142255Z 03003G8KT 33/12 A301 RMK A01 T03310115  RH  027%=      5-min Rain = 0
KPVS 142300Z 02003KT 33/12 A301 RMK A01 T03340117  RH  027%=      5-min Rain = 0
KPVS 142305Z 03007G14KT 34/12 A301 RMK A01 T03350116  RH  027%=      5-min Rain = 0
KPVS 142310Z 04006G14KT 33/11 A301 RMK A01 T03320112  RH  027%=      5-min Rain = 0
KPVS 142315Z 02004KT 33/11 A301 RMK A01 T03320112  RH  027%=      5-min Rain = 0
KPVS 142320Z 08005KT 33/11 A301 RMK A01 T03320112  RH  027%=      5-min Rain = 0
KPVS 142325Z 06005KT 33/11 A301 RMK A01 T03310111  RH  027%=      5-min Rain = 0
KPVS 142330Z 30002KT 33/11 A301 RMK A01 T03300110  RH  027%=      5-min Rain = 0
KPVS 142335Z 08004G9KT 33/11 A301 RMK A01 T03330111  RH  026%=      5-min Rain = 0
KPVS 142340Z 07004KT 33/11 A301 RMK A01 T03320110  RH  026%=      5-min Rain = 0
KPVS 142345Z 08007KT 33/11 A301 RMK A01 T03300108  RH  026%=      5-min Rain = 0
KPVS 142350Z 08005KT 33/11 A301 RMK A01 T03280108  RH  026%=      5-min Rain = 0
KPVS 142355Z 10004KT 33/11 A301 RMK A01 T03280109  RH  026%=      5-min Rain = 0
KPVS 150000Z 10005G10KT 33/11 A3009 RMK A01 T03300111  RH  027%=      5-min Rain = 0
KPVS 150005Z 08006KT 33/11 A3009 RMK A01 T03280110  RH  027%=      5-min Rain = 0
KPVS 150010Z 10006KT 33/11 A3009 RMK A01 T03250113  RH  028%=      5-min Rain = 0
KPVS 150015Z 10006KT 32/12 A3009 RMK A01 T03240116  RH  029%=      5-min Rain = 0
KPVS 150020Z 11006KT 32/12 A3009 RMK A01 T03220119  RH  029%=      5-min Rain = 0
KPVS 150025Z 10006KT 32/12 A3009 RMK A01 T03210122  RH  030%=      5-min Rain = 0
KPVS 150030Z 10006KT 32/12 A301 RMK A01 T03180121  RH  031%=      5-min Rain = 0
KPVS 150035Z 11005KT 32/12 A301 RMK A01 T03180121  RH  031%=      5-min Rain = 0
KPVS 150040Z 11005KT 32/12 A301 RMK A01 T03180122  RH  031%=      5-min Rain = 0
KPVS 150045Z 11006KT 32/12 A301 RMK A01 T03170123  RH  031%=      5-min Rain = 0
KPVS 150050Z 11004KT 31/12 A301 RMK A01 T03140124  RH  032%=      5-min Rain = 0
KPVS 150055Z 11005KT 31/13 A3011 RMK A01 T03110125  RH  033%=      5-min Rain = 0
KPVS 150100Z 12005KT 31/12 A3011 RMK A01 T03100123  RH  033%=      5-min Rain = 0
KPVS 150105Z 11004KT 31/13 A3011 RMK A01 T03080128  RH  034%=      5-min Rain = 0
KPVS 150110Z 12005KT 30/13 A3011 RMK A01 T03040131  RH  035%=      5-min Rain = 0
KPVS 150115Z 11004KT 30/13 A3011 RMK A01 T03030132  RH  036%=      5-min Rain = 0
KPVS 150120Z 10004KT 30/13 A3011 RMK A01 T02990134  RH  037%=      5-min Rain = 0
KPVS 150125Z 10004KT 30/14 A3011 RMK A01 T02950137  RH  039%=      5-min Rain = 0
KPVS 150130Z 10004KT 29/14 A3011 RMK A01 T02910139  RH  040%=      5-min Rain = 0
KPVS 150135Z 09004KT 29/14 A3012 RMK A01 T02890141  RH  041%=      5-min Rain = 0
KPVS 150140Z 09004KT 29/14 A3012 RMK A01 T02880140  RH  041%=      5-min Rain = 0
KPVS 150145Z 10004KT 29/14 A3012 RMK A01 T02860140  RH  041%=      5-min Rain = 0
KPVS 150150Z 10004KT 29/14 A3012 RMK A01 T02850141  RH  042%=      5-min Rain = 0
KPVS 150155Z 10004KT 28/14 A3013 RMK A01 T02820142  RH  043%=      5-min Rain = 0
KPVS 150200Z 11004KT 28/14 A3013 RMK A01 T02790144  RH  044%=      5-min Rain = 0
KPVS 150205Z 10005KT 28/14 A3013 RMK A01 T02760144  RH  045%=      5-min Rain = 0
KPVS 150210Z 10004KT 27/14 A3013 RMK A01 T02740144  RH  046%=      5-min Rain = 0
KPVS 150215Z 10005KT 27/14 A3013 RMK A01 T02720143  RH  046%=      5-min Rain = 0
KPVS 150220Z 10005KT 27/14 A3014 RMK A01 T02710143  RH  046%=      5-min Rain = 0
KPVS 150225Z 10005KT 27/14 A3014 RMK A01 T02700143  RH  047%=      5-min Rain = 0
KPVS 150230Z 11005KT 27/14 A3014 RMK A01 T02710144  RH  047%=      5-min Rain = 0
KPVS 150235Z 10005KT 27/15 A3014 RMK A01 T02700145  RH  047%=      5-min Rain = 0
KPVS 150240Z 10005KT 27/15 A3014 RMK A01 T02680145  RH  048%=      5-min Rain = 0
KPVS 150245Z 11006KT 27/15 A3015 RMK A01 T02680145  RH  048%=      5-min Rain = 0
KPVS 150250Z 11005KT 27/15 A3015 RMK A01 T02670146  RH  048%=      5-min Rain = 0
KPVS 150255Z 11005KT 26/15 A3015 RMK A01 T02640148  RH  050%=      5-min Rain = 0
KPVS 150300Z 10005KT 26/15 A3015 RMK A01 T02620150  RH  051%=      5-min Rain = 0
KPVS 150305Z 11005KT 26/15 A3015 RMK A01 T02600152  RH  052%=      5-min Rain = 0
KPVS 150310Z 11005KT 26/16 A3015 RMK A01 T02590155  RH  054%=      5-min Rain = 0
KPVS 150315Z 11005KT 26/16 A3015 RMK A01 T02570156  RH  055%=      5-min Rain = 0
KPVS 150320Z 10005KT 26/16 A3015 RMK A01 T02550158  RH  056%=      5-min Rain = 0
KPVS 150325Z 11004KT 25/16 A3016 RMK A01 T02530159  RH  057%=      5-min Rain = 0
KPVS 150330Z 11004KT 25/16 A3016 RMK A01 T02520159  RH  058%=      5-min Rain = 0
KPVS 150335Z 12005KT 25/16 A3016 RMK A01 T02520160  RH  058%=      5-min Rain = 0
KPVS 150340Z 11005KT 25/16 A3016 RMK A01 T02520162  RH  059%=      5-min Rain = 0
KPVS 150345Z 11005KT 25/16 A3016 RMK A01 T02510162  RH  059%=      5-min Rain = 0
KPVS 150350Z 11005KT 25/16 A3017 RMK A01 T02500162  RH  059%=      5-min Rain = 0
KPVS 150355Z 11005KT 25/16 A3017 RMK A01 T02490162  RH  060%=      5-min Rain = 0
KPVS 150400Z 11004KT 25/16 A3017 RMK A01 T02470162  RH  061%=      5-min Rain = 0
KPVS 150405Z 11004KT 25/16 A3017 RMK A01 T02450162  RH  061%=      5-min Rain = 0
KPVS 150410Z 11004KT 24/16 A3017 RMK A01 T02440162  RH  062%=      5-min Rain = 0
KPVS 150415Z 11005KT 24/16 A3017 RMK A01 T02430162  RH  062%=      5-min Rain = 0
KPVS 150420Z 12006KT 24/16 A3018 RMK A01 T02430161  RH  062%=      5-min Rain = 0
KPVS 150425Z 12006KT 24/16 A3018 RMK A01 T02440161  RH  061%=      5-min Rain = 0
KPVS 150430Z 12006KT 25/16 A3018 RMK A01 T02450161  RH  061%=      5-min Rain = 0
KPVS 150435Z 11005KT 24/16 A3018 RMK A01 T02430161  RH  062%=      5-min Rain = 0
KPVS 150440Z 11005KT 24/16 A3017 RMK A01 T02410162  RH  063%=      5-min Rain = 0
KPVS 150445Z 11004KT 24/16 A3017 RMK A01 T02400162  RH  063%=      5-min Rain = 0
KPVS 150450Z 13005KT 24/16 A3018 RMK A01 T02400162  RH  063%=      5-min Rain = 0
KPVS 150455Z 12006KT 24/16 A3018 RMK A01 T02400161  RH  063%=      5-min Rain = 0

Page generated in 0.0094 seconds.